sensor_id;sensor_type;location;lat;lon;timestamp;temperature;humidity
68691;DHT22;55675;49.588;8.640;2022-12-07T00:01:10;7.00;92.40
68691;DHT22;55675;49.588;8.640;2022-12-07T00:03:38;7.00;92.40
68691;DHT22;55675;49.588;8.640;2022-12-07T00:06:05;7.00;92.50
68691;DHT22;55675;49.588;8.640;2022-12-07T00:08:32;7.00;92.50
68691;DHT22;55675;49.588;8.640;2022-12-07T00:11:03;7.00;92.70
68691;DHT22;55675;49.588;8.640;2022-12-07T00:13:30;7.10;92.50
68691;DHT22;55675;49.588;8.640;2022-12-07T00:15:55;7.10;92.60
68691;DHT22;55675;49.588;8.640;2022-12-07T00:18:21;7.10;92.60
68691;DHT22;55675;49.588;8.640;2022-12-07T00:20:46;7.10;92.60
68691;DHT22;55675;49.588;8.640;2022-12-07T00:23:12;7.20;92.50
68691;DHT22;55675;49.588;8.640;2022-12-07T00:25:37;7.20;92.50
68691;DHT22;55675;49.588;8.640;2022-12-07T00:28:03;7.20;92.40
68691;DHT22;55675;49.588;8.640;2022-12-07T00:30:29;7.10;92.30
68691;DHT22;55675;49.588;8.640;2022-12-07T00:32:54;7.10;92.30
68691;DHT22;55675;49.588;8.640;2022-12-07T00:35:20;7.20;92.30
68691;DHT22;55675;49.588;8.640;2022-12-07T00:37:45;7.10;92.40
68691;DHT22;55675;49.588;8.640;2022-12-07T00:40:11;7.10;92.40
68691;DHT22;55675;49.588;8.640;2022-12-07T00:42:37;7.10;92.60
68691;DHT22;55675;49.588;8.640;2022-12-07T00:45:02;7.20;92.30
68691;DHT22;55675;49.588;8.640;2022-12-07T00:47:28;7.20;92.20
68691;DHT22;55675;49.588;8.640;2022-12-07T00:49:53;7.20;92.10
68691;DHT22;55675;49.588;8.640;2022-12-07T00:52:19;7.20;92.10
68691;DHT22;55675;49.588;8.640;2022-12-07T00:54:44;7.20;92.20
68691;DHT22;55675;49.588;8.640;2022-12-07T00:57:10;7.10;92.20
68691;DHT22;55675;49.588;8.640;2022-12-07T00:59:35;7.10;92.20
68691;DHT22;55675;49.588;8.640;2022-12-07T01:02:01;7.10;92.20
68691;DHT22;55675;49.588;8.640;2022-12-07T01:04:26;7.10;92.20
68691;DHT22;55675;49.588;8.640;2022-12-07T01:06:52;7.20;92.30
68691;DHT22;55675;49.588;8.640;2022-12-07T01:09:17;7.20;92.30
68691;DHT22;55675;49.588;8.640;2022-12-07T01:11:43;7.20;92.30
68691;DHT22;55675;49.588;8.640;2022-12-07T01:14:09;7.20;92.20
68691;DHT22;55675;49.588;8.640;2022-12-07T01:16:34;7.20;92.30
68691;DHT22;55675;49.588;8.640;2022-12-07T01:19:00;7.20;92.30
68691;DHT22;55675;49.588;8.640;2022-12-07T01:21:29;7.10;92.30
68691;DHT22;55675;49.588;8.640;2022-12-07T01:23:57;7.20;92.30
68691;DHT22;55675;49.588;8.640;2022-12-07T01:26:24;7.20;92.20
68691;DHT22;55675;49.588;8.640;2022-12-07T01:28:50;7.20;92.20
68691;DHT22;55675;49.588;8.640;2022-12-07T01:31:18;7.20;92.30
68691;DHT22;55675;49.588;8.640;2022-12-07T01:33:47;7.10;92.10
68691;DHT22;55675;49.588;8.640;2022-12-07T01:36:15;7.10;92.10
68691;DHT22;55675;49.588;8.640;2022-12-07T01:38:42;7.10;92.10
68691;DHT22;55675;49.588;8.640;2022-12-07T01:41:08;7.10;92.10
68691;DHT22;55675;49.588;8.640;2022-12-07T01:43:34;7.00;92.10
68691;DHT22;55675;49.588;8.640;2022-12-07T01:46:00;7.00;92.20
68691;DHT22;55675;49.588;8.640;2022-12-07T01:48:29;7.00;92.20
68691;DHT22;55675;49.588;8.640;2022-12-07T01:51:01;7.00;92.20
68691;DHT22;55675;49.588;8.640;2022-12-07T01:53:30;6.90;92.20
68691;DHT22;55675;49.588;8.640;2022-12-07T01:55:58;6.90;92.20
68691;DHT22;55675;49.588;8.640;2022-12-07T01:58:24;6.90;92.30
68691;DHT22;55675;49.588;8.640;2022-12-07T02:00:50;6.80;92.30
68691;DHT22;55675;49.588;8.640;2022-12-07T02:03:24;6.80;92.40
68691;DHT22;55675;49.588;8.640;2022-12-07T02:05:51;6.70;92.70
68691;DHT22;55675;49.588;8.640;2022-12-07T02:08:18;6.70;92.50
68691;DHT22;55675;49.588;8.640;2022-12-07T02:10:43;6.70;92.60
68691;DHT22;55675;49.588;8.640;2022-12-07T02:13:13;6.70;92.60
68691;DHT22;55675;49.588;8.640;2022-12-07T02:18:38;6.70;92.70
68691;DHT22;55675;49.588;8.640;2022-12-07T02:24:15;6.60;92.60
68691;DHT22;55675;49.588;8.640;2022-12-07T02:29:22;6.40;92.70
68691;DHT22;55675;49.588;8.640;2022-12-07T02:32:03;6.40;92.80
68691;DHT22;55675;49.588;8.640;2022-12-07T02:34:54;6.40;93.20
68691;DHT22;55675;49.588;8.640;2022-12-07T02:37:53;6.40;92.90
68691;DHT22;55675;49.588;8.640;2022-12-07T02:40:36;6.50;92.90
68691;DHT22;55675;49.588;8.640;2022-12-07T02:43:19;6.50;92.90
68691;DHT22;55675;49.588;8.640;2022-12-07T02:45:51;6.50;92.90
68691;DHT22;55675;49.588;8.640;2022-12-07T02:48:19;6.60;92.90
68691;DHT22;55675;49.588;8.640;2022-12-07T02:50:49;6.60;92.90
68691;DHT22;55675;49.588;8.640;2022-12-07T02:53:31;6.60;92.90
68691;DHT22;55675;49.588;8.640;2022-12-07T02:55:59;6.70;92.90
68691;DHT22;55675;49.588;8.640;2022-12-07T03:02:17;6.70;92.90
68691;DHT22;55675;49.588;8.640;2022-12-07T03:05:15;6.70;92.90
68691;DHT22;55675;49.588;8.640;2022-12-07T03:16:18;6.80;93.00
68691;DHT22;55675;49.588;8.640;2022-12-07T03:21:23;6.80;93.00
68691;DHT22;55675;49.588;8.640;2022-12-07T03:23:56;6.90;93.10
68691;DHT22;55675;49.588;8.640;2022-12-07T03:26:31;6.80;93.00
68691;DHT22;55675;49.588;8.640;2022-12-07T03:29:02;6.80;93.00
68691;DHT22;55675;49.588;8.640;2022-12-07T03:31:33;6.80;93.00
68691;DHT22;55675;49.588;8.640;2022-12-07T03:34:08;6.90;93.00
68691;DHT22;55675;49.588;8.640;2022-12-07T03:36:41;6.90;92.90
68691;DHT22;55675;49.588;8.640;2022-12-07T03:41:43;6.90;92.80
68691;DHT22;55675;49.588;8.640;2022-12-07T03:44:08;6.90;92.80
68691;DHT22;55675;49.588;8.640;2022-12-07T03:46:36;6.90;92.80
68691;DHT22;55675;49.588;8.640;2022-12-07T03:49:11;6.90;92.80
68691;DHT22;55675;49.588;8.640;2022-12-07T03:51:50;6.90;92.60
68691;DHT22;55675;49.588;8.640;2022-12-07T03:56:49;6.90;92.30
68691;DHT22;55675;49.588;8.640;2022-12-07T03:59:16;6.90;92.30
68691;DHT22;55675;49.588;8.640;2022-12-07T04:01:44;6.90;92.40
68691;DHT22;55675;49.588;8.640;2022-12-07T04:04:11;7.00;92.40
68691;DHT22;55675;49.588;8.640;2022-12-07T04:06:36;7.00;92.30
68691;DHT22;55675;49.588;8.640;2022-12-07T04:09:02;7.00;92.10
68691;DHT22;55675;49.588;8.640;2022-12-07T04:11:28;7.00;92.20
68691;DHT22;55675;49.588;8.640;2022-12-07T04:13:53;7.00;92.30
68691;DHT22;55675;49.588;8.640;2022-12-07T04:16:37;7.10;92.20
68691;DHT22;55675;49.588;8.640;2022-12-07T04:19:03;7.00;92.20
68691;DHT22;55675;49.588;8.640;2022-12-07T04:21:28;7.00;92.30
68691;DHT22;55675;49.588;8.640;2022-12-07T04:23:54;7.10;92.30
68691;DHT22;55675;49.588;8.640;2022-12-07T04:26:19;7.10;92.30
68691;DHT22;55675;49.588;8.640;2022-12-07T04:28:45;7.10;92.20
68691;DHT22;55675;49.588;8.640;2022-12-07T04:31:10;7.20;92.10
68691;DHT22;55675;49.588;8.640;2022-12-07T04:33:36;7.20;92.10
68691;DHT22;55675;49.588;8.640;2022-12-07T04:36:01;7.20;92.00
68691;DHT22;55675;49.588;8.640;2022-12-07T04:38:27;7.30;92.10
68691;DHT22;55675;49.588;8.640;2022-12-07T04:40:52;7.20;92.00
68691;DHT22;55675;49.588;8.640;2022-12-07T04:43:18;7.20;92.10
68691;DHT22;55675;49.588;8.640;2022-12-07T04:45:50;7.20;92.00
68691;DHT22;55675;49.588;8.640;2022-12-07T04:48:16;7.20;92.10
68691;DHT22;55675;49.588;8.640;2022-12-07T04:50:41;7.20;92.20
68691;DHT22;55675;49.588;8.640;2022-12-07T04:53:07;7.20;92.30
68691;DHT22;55675;49.588;8.640;2022-12-07T04:55:32;7.20;92.20
68691;DHT22;55675;49.588;8.640;2022-12-07T04:57:58;7.20;92.20
68691;DHT22;55675;49.588;8.640;2022-12-07T05:00:23;7.20;92.30
68691;DHT22;55675;49.588;8.640;2022-12-07T05:02:49;7.20;92.30
68691;DHT22;55675;49.588;8.640;2022-12-07T05:05:14;7.20;92.30
68691;DHT22;55675;49.588;8.640;2022-12-07T05:07:40;7.20;92.30
68691;DHT22;55675;49.588;8.640;2022-12-07T05:10:06;7.20;92.30
68691;DHT22;55675;49.588;8.640;2022-12-07T05:12:32;7.20;92.70
68691;DHT22;55675;49.588;8.640;2022-12-07T05:14:57;7.20;92.40
68691;DHT22;55675;49.588;8.640;2022-12-07T05:17:23;7.20;92.40
68691;DHT22;55675;49.588;8.640;2022-12-07T05:19:48;7.20;92.50
68691;DHT22;55675;49.588;8.640;2022-12-07T05:22:14;7.30;92.50
68691;DHT22;55675;49.588;8.640;2022-12-07T05:24:40;7.20;92.50
68691;DHT22;55675;49.588;8.640;2022-12-07T05:27:06;7.20;92.50
68691;DHT22;55675;49.588;8.640;2022-12-07T05:29:31;7.30;92.60
68691;DHT22;55675;49.588;8.640;2022-12-07T05:31:57;7.30;92.50
68691;DHT22;55675;49.588;8.640;2022-12-07T05:34:23;7.30;92.50
68691;DHT22;55675;49.588;8.640;2022-12-07T05:36:48;7.20;92.50
68691;DHT22;55675;49.588;8.640;2022-12-07T05:39:14;7.20;92.50
68691;DHT22;55675;49.588;8.640;2022-12-07T05:41:39;7.20;92.50
68691;DHT22;55675;49.588;8.640;2022-12-07T05:44:24;7.20;92.50
68691;DHT22;55675;49.588;8.640;2022-12-07T05:46:49;7.20;92.50
68691;DHT22;55675;49.588;8.640;2022-12-07T05:49:15;7.20;92.50
68691;DHT22;55675;49.588;8.640;2022-12-07T05:51:40;7.20;92.50
68691;DHT22;55675;49.588;8.640;2022-12-07T05:54:06;7.20;92.60
68691;DHT22;55675;49.588;8.640;2022-12-07T05:56:31;7.20;92.60
68691;DHT22;55675;49.588;8.640;2022-12-07T05:58:57;7.20;92.60
68691;DHT22;55675;49.588;8.640;2022-12-07T06:01:41;7.20;92.50
68691;DHT22;55675;49.588;8.640;2022-12-07T06:04:07;7.10;92.30
68691;DHT22;55675;49.588;8.640;2022-12-07T06:06:32;7.10;92.50
68691;DHT22;55675;49.588;8.640;2022-12-07T06:08:58;7.10;92.50
68691;DHT22;55675;49.588;8.640;2022-12-07T06:11:24;7.10;92.50
68691;DHT22;55675;49.588;8.640;2022-12-07T06:14:08;7.10;92.50
68691;DHT22;55675;49.588;8.640;2022-12-07T06:16:33;7.10;92.50
68691;DHT22;55675;49.588;8.640;2022-12-07T06:18:59;7.10;92.60
68691;DHT22;55675;49.588;8.640;2022-12-07T06:21:24;7.10;92.60
68691;DHT22;55675;49.588;8.640;2022-12-07T06:23:52;7.20;92.60
68691;DHT22;55675;49.588;8.640;2022-12-07T06:26:17;7.20;92.50
68691;DHT22;55675;49.588;8.640;2022-12-07T06:28:43;7.20;92.60
68691;DHT22;55675;49.588;8.640;2022-12-07T06:31:08;7.20;92.60
68691;DHT22;55675;49.588;8.640;2022-12-07T06:33:34;7.20;92.50
68691;DHT22;55675;49.588;8.640;2022-12-07T06:35:59;7.20;92.50
68691;DHT22;55675;49.588;8.640;2022-12-07T06:38:25;7.20;92.50
68691;DHT22;55675;49.588;8.640;2022-12-07T06:40:51;7.20;92.60
68691;DHT22;55675;49.588;8.640;2022-12-07T06:43:16;7.20;92.60
68691;DHT22;55675;49.588;8.640;2022-12-07T06:45:42;7.20;92.50
68691;DHT22;55675;49.588;8.640;2022-12-07T06:48:08;7.20;92.50
68691;DHT22;55675;49.588;8.640;2022-12-07T06:50:33;7.20;92.50
68691;DHT22;55675;49.588;8.640;2022-12-07T06:52:59;7.10;92.40
68691;DHT22;55675;49.588;8.640;2022-12-07T06:55:24;7.10;92.30
68691;DHT22;55675;49.588;8.640;2022-12-07T06:57:50;7.10;92.30
68691;DHT22;55675;49.588;8.640;2022-12-07T07:00:16;7.10;92.30
68691;DHT22;55675;49.588;8.640;2022-12-07T07:02:41;7.10;92.40
68691;DHT22;55675;49.588;8.640;2022-12-07T07:05:07;7.10;92.40
68691;DHT22;55675;49.588;8.640;2022-12-07T07:07:32;7.10;92.30
68691;DHT22;55675;49.588;8.640;2022-12-07T07:09:58;7.10;92.30
68691;DHT22;55675;49.588;8.640;2022-12-07T07:12:23;7.10;92.30
68691;DHT22;55675;49.588;8.640;2022-12-07T07:14:49;7.10;92.50
68691;DHT22;55675;49.588;8.640;2022-12-07T07:17:15;7.10;92.50
68691;DHT22;55675;49.588;8.640;2022-12-07T07:19:40;7.10;92.40
68691;DHT22;55675;49.588;8.640;2022-12-07T07:22:06;7.20;92.40
68691;DHT22;55675;49.588;8.640;2022-12-07T07:24:31;7.20;92.30
68691;DHT22;55675;49.588;8.640;2022-12-07T07:26:57;7.20;92.30
68691;DHT22;55675;49.588;8.640;2022-12-07T07:29:22;7.20;92.40
68691;DHT22;55675;49.588;8.640;2022-12-07T07:31:48;7.20;92.40
68691;DHT22;55675;49.588;8.640;2022-12-07T07:34:13;7.20;92.20
68691;DHT22;55675;49.588;8.640;2022-12-07T07:36:39;7.20;92.40
68691;DHT22;55675;49.588;8.640;2022-12-07T07:39:04;7.20;92.70
68691;DHT22;55675;49.588;8.640;2022-12-07T07:41:30;7.20;92.70
68691;DHT22;55675;49.588;8.640;2022-12-07T07:43:56;7.20;92.60
68691;DHT22;55675;49.588;8.640;2022-12-07T07:46:21;7.20;92.60
68691;DHT22;55675;49.588;8.640;2022-12-07T07:48:47;7.30;92.60
68691;DHT22;55675;49.588;8.640;2022-12-07T07:51:12;7.30;92.50
68691;DHT22;55675;49.588;8.640;2022-12-07T07:53:38;7.30;92.40
68691;DHT22;55675;49.588;8.640;2022-12-07T07:56:03;7.30;92.20
68691;DHT22;55675;49.588;8.640;2022-12-07T07:58:29;7.30;92.20
68691;DHT22;55675;49.588;8.640;2022-12-07T08:00:55;7.40;92.30
68691;DHT22;55675;49.588;8.640;2022-12-07T08:03:20;7.40;92.30
68691;DHT22;55675;49.588;8.640;2022-12-07T08:05:46;7.40;92.10
68691;DHT22;55675;49.588;8.640;2022-12-07T08:08:11;7.40;92.10
68691;DHT22;55675;49.588;8.640;2022-12-07T08:10:37;7.40;92.10
68691;DHT22;55675;49.588;8.640;2022-12-07T08:13:03;7.40;92.10
68691;DHT22;55675;49.588;8.640;2022-12-07T08:15:41;7.40;92.10
68691;DHT22;55675;49.588;8.640;2022-12-07T08:18:07;7.40;92.20
68691;DHT22;55675;49.588;8.640;2022-12-07T08:20:35;7.40;92.30
68691;DHT22;55675;49.588;8.640;2022-12-07T08:23:01;7.40;92.30
68691;DHT22;55675;49.588;8.640;2022-12-07T08:25:27;7.40;92.20
68691;DHT22;55675;49.588;8.640;2022-12-07T08:27:53;7.40;92.30
68691;DHT22;55675;49.588;8.640;2022-12-07T08:30:19;7.40;92.30
68691;DHT22;55675;49.588;8.640;2022-12-07T08:32:46;7.40;92.30
68691;DHT22;55675;49.588;8.640;2022-12-07T08:35:12;7.40;92.30
68691;DHT22;55675;49.588;8.640;2022-12-07T08:37:38;7.40;92.10
68691;DHT22;55675;49.588;8.640;2022-12-07T08:40:05;7.40;92.10
68691;DHT22;55675;49.588;8.640;2022-12-07T08:42:31;7.50;92.20
68691;DHT22;55675;49.588;8.640;2022-12-07T08:45:05;7.50;92.30
68691;DHT22;55675;49.588;8.640;2022-12-07T08:47:31;7.60;92.10
68691;DHT22;55675;49.588;8.640;2022-12-07T08:49:57;7.70;91.80
68691;DHT22;55675;49.588;8.640;2022-12-07T08:52:31;7.70;91.80
68691;DHT22;55675;49.588;8.640;2022-12-07T08:54:58;7.70;91.70
68691;DHT22;55675;49.588;8.640;2022-12-07T08:57:24;7.80;91.60
68691;DHT22;55675;49.588;8.640;2022-12-07T08:59:50;7.80;91.60
68691;DHT22;55675;49.588;8.640;2022-12-07T09:02:15;7.90;91.80
68691;DHT22;55675;49.588;8.640;2022-12-07T09:04:41;8.00;91.60
68691;DHT22;55675;49.588;8.640;2022-12-07T09:07:06;8.00;91.20
68691;DHT22;55675;49.588;8.640;2022-12-07T09:09:32;8.00;91.20
68691;DHT22;55675;49.588;8.640;2022-12-07T09:11:57;8.10;91.40
68691;DHT22;55675;49.588;8.640;2022-12-07T09:14:23;8.10;91.10
68691;DHT22;55675;49.588;8.640;2022-12-07T09:16:49;8.10;91.00
68691;DHT22;55675;49.588;8.640;2022-12-07T09:19:15;8.10;91.10
68691;DHT22;55675;49.588;8.640;2022-12-07T09:21:40;8.10;90.80
68691;DHT22;55675;49.588;8.640;2022-12-07T09:24:06;8.10;90.90
68691;DHT22;55675;49.588;8.640;2022-12-07T09:26:32;8.10;90.90
68691;DHT22;55675;49.588;8.640;2022-12-07T09:28:57;8.10;90.80
68691;DHT22;55675;49.588;8.640;2022-12-07T09:31:23;8.10;90.80
68691;DHT22;55675;49.588;8.640;2022-12-07T09:33:57;8.00;90.90
68691;DHT22;55675;49.588;8.640;2022-12-07T09:36:23;8.00;91.00
68691;DHT22;55675;49.588;8.640;2022-12-07T09:38:49;8.00;90.90
68691;DHT22;55675;49.588;8.640;2022-12-07T09:41:14;8.00;90.80
68691;DHT22;55675;49.588;8.640;2022-12-07T09:43:41;8.10;90.70
68691;DHT22;55675;49.588;8.640;2022-12-07T09:46:11;8.00;90.30
68691;DHT22;55675;49.588;8.640;2022-12-07T09:48:38;8.00;90.60
68691;DHT22;55675;49.588;8.640;2022-12-07T09:51:24;8.00;90.40
68691;DHT22;55675;49.588;8.640;2022-12-07T09:53:51;8.00;90.30
68691;DHT22;55675;49.588;8.640;2022-12-07T09:56:18;8.00;90.30
68691;DHT22;55675;49.588;8.640;2022-12-07T09:58:45;7.90;90.60
68691;DHT22;55675;49.588;8.640;2022-12-07T10:01:19;7.90;90.40
68691;DHT22;55675;49.588;8.640;2022-12-07T10:03:55;8.00;90.70
68691;DHT22;55675;49.588;8.640;2022-12-07T10:06:21;8.00;90.80
68691;DHT22;55675;49.588;8.640;2022-12-07T10:08:47;8.00;90.80
68691;DHT22;55675;49.588;8.640;2022-12-07T10:11:12;8.10;90.80
68691;DHT22;55675;49.588;8.640;2022-12-07T10:13:46;8.10;90.70
68691;DHT22;55675;49.588;8.640;2022-12-07T10:16:39;8.10;90.50
68691;DHT22;55675;49.588;8.640;2022-12-07T10:19:25;8.10;90.40
68691;DHT22;55675;49.588;8.640;2022-12-07T10:22:12;8.10;90.50
68691;DHT22;55675;49.588;8.640;2022-12-07T10:24:39;8.10;90.50
68691;DHT22;55675;49.588;8.640;2022-12-07T10:27:21;8.10;90.30
68691;DHT22;55675;49.588;8.640;2022-12-07T10:29:50;8.10;90.70
68691;DHT22;55675;49.588;8.640;2022-12-07T10:34:42;8.10;90.30
68691;DHT22;55675;49.588;8.640;2022-12-07T10:39:52;8.10;90.50
68691;DHT22;55675;49.588;8.640;2022-12-07T10:42:20;8.10;90.60
68691;DHT22;55675;49.588;8.640;2022-12-07T10:44:47;8.10;90.70
68691;DHT22;55675;49.588;8.640;2022-12-07T10:48:00;8.10;90.70
68691;DHT22;55675;49.588;8.640;2022-12-07T10:53:15;8.10;90.70
68691;DHT22;55675;49.588;8.640;2022-12-07T11:01:20;8.10;90.80
68691;DHT22;55675;49.588;8.640;2022-12-07T11:04:10;8.10;90.90
68691;DHT22;55675;49.588;8.640;2022-12-07T11:10:09;8.10;90.90
68691;DHT22;55675;49.588;8.640;2022-12-07T11:18:22;8.20;91.00
68691;DHT22;55675;49.588;8.640;2022-12-07T11:21:24;8.20;91.00
68691;DHT22;55675;49.588;8.640;2022-12-07T11:24:10;8.30;91.00
68691;DHT22;55675;49.588;8.640;2022-12-07T11:26:52;8.30;90.90
68691;DHT22;55675;49.588;8.640;2022-12-07T11:37:18;8.60;90.70
68691;DHT22;55675;49.588;8.640;2022-12-07T11:40:15;8.70;90.80
68691;DHT22;55675;49.588;8.640;2022-12-07T11:42:53;9.00;90.70
68691;DHT22;55675;49.588;8.640;2022-12-07T11:45:34;9.30;90.50
68691;DHT22;55675;49.588;8.640;2022-12-07T11:51:10;9.70;89.10
68691;DHT22;55675;49.588;8.640;2022-12-07T11:53:42;9.90;87.50
68691;DHT22;55675;49.588;8.640;2022-12-07T11:56:13;9.90;87.00
68691;DHT22;55675;49.588;8.640;2022-12-07T12:03:45;10.00;86.20
68691;DHT22;55675;49.588;8.640;2022-12-07T12:06:11;10.00;86.40
68691;DHT22;55675;49.588;8.640;2022-12-07T12:08:42;10.10;86.30
68691;DHT22;55675;49.588;8.640;2022-12-07T12:17:16;10.00;85.00
68691;DHT22;55675;49.588;8.640;2022-12-07T12:20:05;9.90;84.70
68691;DHT22;55675;49.588;8.640;2022-12-07T12:22:38;9.90;85.10
68691;DHT22;55675;49.588;8.640;2022-12-07T12:25:21;9.80;85.20
68691;DHT22;55675;49.588;8.640;2022-12-07T12:27:49;9.70;85.60
68691;DHT22;55675;49.588;8.640;2022-12-07T12:30:39;9.70;86.50
68691;DHT22;55675;49.588;8.640;2022-12-07T12:33:28;9.70;86.80
68691;DHT22;55675;49.588;8.640;2022-12-07T12:50:25;9.70;86.70
68691;DHT22;55675;49.588;8.640;2022-12-07T12:52:55;9.60;86.00
68691;DHT22;55675;49.588;8.640;2022-12-07T12:55:41;9.60;86.10
68691;DHT22;55675;49.588;8.640;2022-12-07T13:00:48;9.70;86.80
68691;DHT22;55675;49.588;8.640;2022-12-07T13:03:33;9.70;86.80
68691;DHT22;55675;49.588;8.640;2022-12-07T13:08:43;9.60;87.20
68691;DHT22;55675;49.588;8.640;2022-12-07T13:11:41;9.50;87.10
68691;DHT22;55675;49.588;8.640;2022-12-07T13:20:07;9.40;87.70
68691;DHT22;55675;49.588;8.640;2022-12-07T13:25:45;9.30;87.30
68691;DHT22;55675;49.588;8.640;2022-12-07T13:28:18;9.40;87.30
68691;DHT22;55675;49.588;8.640;2022-12-07T13:33:24;9.30;87.00
68691;DHT22;55675;49.588;8.640;2022-12-07T13:35:54;9.40;87.20
68691;DHT22;55675;49.588;8.640;2022-12-07T13:38:28;9.50;86.70
68691;DHT22;55675;49.588;8.640;2022-12-07T13:41:14;9.50;87.00
68691;DHT22;55675;49.588;8.640;2022-12-07T13:44:00;9.60;86.20
68691;DHT22;55675;49.588;8.640;2022-12-07T13:49:23;9.80;86.30
68691;DHT22;55675;49.588;8.640;2022-12-07T13:51:49;9.80;85.80
68691;DHT22;55675;49.588;8.640;2022-12-07T13:54:16;9.80;85.70
68691;DHT22;55675;49.588;8.640;2022-12-07T13:56:42;9.80;85.90
68691;DHT22;55675;49.588;8.640;2022-12-07T13:59:22;9.70;85.70
68691;DHT22;55675;49.588;8.640;2022-12-07T14:01:50;9.70;86.40
68691;DHT22;55675;49.588;8.640;2022-12-07T14:04:36;9.60;85.80
68691;DHT22;55675;49.588;8.640;2022-12-07T14:07:20;9.60;86.20
68691;DHT22;55675;49.588;8.640;2022-12-07T14:12:31;9.60;86.50
68691;DHT22;55675;49.588;8.640;2022-12-07T14:14:58;9.50;87.10
68691;DHT22;55675;49.588;8.640;2022-12-07T14:17:26;9.50;87.60
68691;DHT22;55675;49.588;8.640;2022-12-07T14:22:24;9.50;88.10
68691;DHT22;55675;49.588;8.640;2022-12-07T14:24:57;9.40;88.10
68691;DHT22;55675;49.588;8.640;2022-12-07T14:27:24;9.40;88.20
68691;DHT22;55675;49.588;8.640;2022-12-07T14:29:56;9.30;88.50
68691;DHT22;55675;49.588;8.640;2022-12-07T14:32:27;9.30;88.60
68691;DHT22;55675;49.588;8.640;2022-12-07T14:37:26;9.30;88.50
68691;DHT22;55675;49.588;8.640;2022-12-07T14:39:52;9.30;88.40
68691;DHT22;55675;49.588;8.640;2022-12-07T14:42:18;9.30;88.50
68691;DHT22;55675;49.588;8.640;2022-12-07T14:44:44;9.20;88.30
68691;DHT22;55675;49.588;8.640;2022-12-07T14:47:10;9.20;88.00
68691;DHT22;55675;49.588;8.640;2022-12-07T14:49:36;9.20;88.00
68691;DHT22;55675;49.588;8.640;2022-12-07T14:52:02;9.20;87.70
68691;DHT22;55675;49.588;8.640;2022-12-07T14:54:31;9.20;87.70
68691;DHT22;55675;49.588;8.640;2022-12-07T14:56:56;9.20;87.30
68691;DHT22;55675;49.588;8.640;2022-12-07T14:59:22;9.10;86.60
68691;DHT22;55675;49.588;8.640;2022-12-07T15:01:47;9.10;86.40
68691;DHT22;55675;49.588;8.640;2022-12-07T15:04:13;9.10;86.50
68691;DHT22;55675;49.588;8.640;2022-12-07T15:06:39;9.00;86.60
68691;DHT22;55675;49.588;8.640;2022-12-07T15:09:05;9.00;86.50
68691;DHT22;55675;49.588;8.640;2022-12-07T15:11:30;9.00;86.80
68691;DHT22;55675;49.588;8.640;2022-12-07T15:13:56;8.90;87.00
68691;DHT22;55675;49.588;8.640;2022-12-07T15:16:35;8.90;87.20
68691;DHT22;55675;49.588;8.640;2022-12-07T15:19:01;8.90;87.50
68691;DHT22;55675;49.588;8.640;2022-12-07T15:21:26;8.90;86.40
68691;DHT22;55675;49.588;8.640;2022-12-07T15:23:52;8.80;85.90
68691;DHT22;55675;49.588;8.640;2022-12-07T15:26:18;8.80;86.10
68691;DHT22;55675;49.588;8.640;2022-12-07T15:28:43;8.80;86.70
68691;DHT22;55675;49.588;8.640;2022-12-07T15:31:16;8.80;86.50
68691;DHT22;55675;49.588;8.640;2022-12-07T15:33:43;8.70;86.50
68691;DHT22;55675;49.588;8.640;2022-12-07T15:36:18;8.70;86.90
68691;DHT22;55675;49.588;8.640;2022-12-07T15:38:44;8.70;87.20
68691;DHT22;55675;49.588;8.640;2022-12-07T15:41:09;8.70;87.50
68691;DHT22;55675;49.588;8.640;2022-12-07T15:43:36;8.70;87.80
68691;DHT22;55675;49.588;8.640;2022-12-07T15:46:20;8.70;87.90
68691;DHT22;55675;49.588;8.640;2022-12-07T15:48:46;8.70;87.80
68691;DHT22;55675;49.588;8.640;2022-12-07T15:51:11;8.70;87.90
68691;DHT22;55675;49.588;8.640;2022-12-07T15:53:37;8.70;88.20
68691;DHT22;55675;49.588;8.640;2022-12-07T15:56:07;8.60;88.10
68691;DHT22;55675;49.588;8.640;2022-12-07T15:58:32;8.60;87.70
68691;DHT22;55675;49.588;8.640;2022-12-07T16:00:58;8.60;87.20
68691;DHT22;55675;49.588;8.640;2022-12-07T16:03:23;8.50;87.30
68691;DHT22;55675;49.588;8.640;2022-12-07T16:05:50;8.40;87.50
68691;DHT22;55675;49.588;8.640;2022-12-07T16:08:15;8.40;87.90
68691;DHT22;55675;49.588;8.640;2022-12-07T16:10:41;8.40;87.80
68691;DHT22;55675;49.588;8.640;2022-12-07T16:13:10;8.40;87.60
68691;DHT22;55675;49.588;8.640;2022-12-07T16:15:42;8.30;87.50
68691;DHT22;55675;49.588;8.640;2022-12-07T16:18:08;8.30;87.50
68691;DHT22;55675;49.588;8.640;2022-12-07T16:20:34;8.30;87.50
68691;DHT22;55675;49.588;8.640;2022-12-07T16:22:59;8.30;87.50
68691;DHT22;55675;49.588;8.640;2022-12-07T16:25:25;8.30;87.70
68691;DHT22;55675;49.588;8.640;2022-12-07T16:27:52;8.20;87.80
68691;DHT22;55675;49.588;8.640;2022-12-07T16:30:18;8.20;88.20
68691;DHT22;55675;49.588;8.640;2022-12-07T16:32:43;8.20;88.60
68691;DHT22;55675;49.588;8.640;2022-12-07T16:35:10;8.20;89.00
68691;DHT22;55675;49.588;8.640;2022-12-07T16:37:35;8.20;89.40
68691;DHT22;55675;49.588;8.640;2022-12-07T16:40:01;8.20;89.50
68691;DHT22;55675;49.588;8.640;2022-12-07T16:42:32;8.20;89.50
68691;DHT22;55675;49.588;8.640;2022-12-07T16:44:58;8.20;89.60
68691;DHT22;55675;49.588;8.640;2022-12-07T16:47:23;8.20;89.50
68691;DHT22;55675;49.588;8.640;2022-12-07T16:49:49;8.20;89.60
68691;DHT22;55675;49.588;8.640;2022-12-07T16:52:14;8.20;89.60
68691;DHT22;55675;49.588;8.640;2022-12-07T16:54:40;8.10;89.40
68691;DHT22;55675;49.588;8.640;2022-12-07T16:57:05;8.10;89.30
68691;DHT22;55675;49.588;8.640;2022-12-07T16:59:31;8.10;89.90
68691;DHT22;55675;49.588;8.640;2022-12-07T17:01:56;8.10;89.90
68691;DHT22;55675;49.588;8.640;2022-12-07T17:04:22;8.10;90.00
68691;DHT22;55675;49.588;8.640;2022-12-07T17:06:47;8.10;89.80
68691;DHT22;55675;49.588;8.640;2022-12-07T17:09:13;8.10;89.80
68691;DHT22;55675;49.588;8.640;2022-12-07T17:11:38;8.00;89.90
68691;DHT22;55675;49.588;8.640;2022-12-07T17:14:04;8.00;90.10
68691;DHT22;55675;49.588;8.640;2022-12-07T17:16:48;8.00;90.10
68691;DHT22;55675;49.588;8.640;2022-12-07T17:19:15;8.00;90.20
68691;DHT22;55675;49.588;8.640;2022-12-07T17:21:42;8.00;90.10
68691;DHT22;55675;49.588;8.640;2022-12-07T17:24:10;8.00;90.20
68691;DHT22;55675;49.588;8.640;2022-12-07T17:26:37;8.00;90.40
68691;DHT22;55675;49.588;8.640;2022-12-07T17:29:04;8.00;90.40
68691;DHT22;55675;49.588;8.640;2022-12-07T17:31:30;8.00;90.30
68691;DHT22;55675;49.588;8.640;2022-12-07T17:33:57;8.00;90.10
68691;DHT22;55675;49.588;8.640;2022-12-07T17:36:26;8.00;90.00
68691;DHT22;55675;49.588;8.640;2022-12-07T17:38:52;8.00;90.10
68691;DHT22;55675;49.588;8.640;2022-12-07T17:41:21;8.00;90.10
68691;DHT22;55675;49.588;8.640;2022-12-07T17:44:09;8.00;90.20
68691;DHT22;55675;49.588;8.640;2022-12-07T17:46:36;7.90;90.20
68691;DHT22;55675;49.588;8.640;2022-12-07T17:49:02;7.90;90.20
68691;DHT22;55675;49.588;8.640;2022-12-07T17:51:29;7.90;90.20